createdAt,value
2018-11-02T00:00:00.383Z,69.27
2018-11-02T00:00:31.516Z,63.10
2018-11-02T00:01:02.670Z,63.08
2018-11-02T00:01:33.918Z,66.77
2018-11-02T00:02:05.042Z,65.57
2018-11-02T00:02:36.193Z,65.20
2018-11-02T00:03:07.340Z,69.60
2018-11-02T00:03:38.484Z,66.00
2018-11-02T00:04:09.609Z,65.65
2018-11-02T00:04:40.779Z,65.62
2018-11-02T00:05:11.895Z,66.25
2018-11-02T00:05:43.015Z,66.75
2018-11-02T00:06:14.162Z,68.22
2018-11-02T00:06:45.334Z,68.87
2018-11-02T00:07:16.451Z,66.45
2018-11-02T00:07:47.612Z,67.67
2018-11-02T00:08:18.726Z,64.50
2018-11-02T00:08:49.841Z,66.70
2018-11-02T00:09:20.985Z,65.40
2018-11-02T00:09:52.170Z,70.40
2018-11-02T00:10:23.347Z,70.03
2018-11-02T00:10:54.494Z,71.67
2018-11-02T00:11:25.624Z,71.95
2018-11-02T00:11:56.755Z,71.87
2018-11-02T00:12:27.931Z,69.22
2018-11-02T00:12:59.055Z,63.23
2018-11-02T00:13:30.195Z,69.67
2018-11-02T00:14:01.332Z,72.10
2018-11-02T00:14:32.481Z,72.30
2018-11-02T00:15:03.627Z,70.85
2018-11-02T00:15:34.823Z,66.65
2018-11-02T00:16:05.970Z,70.25
2018-11-02T00:16:37.127Z,72.78
2018-11-02T00:17:08.280Z,69.97
2018-11-02T00:17:39.390Z,69.37
2018-11-02T00:18:10.563Z,69.47
2018-11-02T00:18:41.704Z,71.28
2018-11-02T00:19:12.838Z,68.60
2018-11-02T00:19:43.973Z,73.33
2018-11-02T00:20:15.118Z,74.72
2018-11-02T00:20:46.281Z,77.22
2018-11-02T00:21:17.441Z,70.57
2018-11-02T00:21:48.574Z,65.87
2018-11-02T00:22:19.677Z,69.30
2018-11-02T00:22:50.826Z,72.67
2018-11-02T00:23:21.945Z,72.80
2018-11-02T00:23:53.087Z,64.42
2018-11-02T00:24:24.203Z,64.30
2018-11-02T00:24:55.316Z,66.77
2018-11-02T00:25:26.438Z,58.95
2018-11-02T00:25:57.596Z,66.57
2018-11-02T00:26:28.760Z,67.03
2018-11-02T00:26:59.912Z,59.13
2018-11-02T00:27:31.054Z,62.27
2018-11-02T00:28:02.180Z,63.55
2018-11-02T00:28:33.303Z,67.80
2018-11-02T00:29:04.425Z,68.30
2018-11-02T00:29:36.565Z,68.12
2018-11-02T00:30:08.471Z,65.57
2018-11-02T00:30:39.588Z,74.05
2018-11-02T00:31:47.491Z,71.55
2018-11-02T00:32:18.550Z,66.42
2018-11-02T00:32:49.673Z,71.87
2018-11-02T00:33:20.798Z,69.45
2018-11-02T00:33:51.958Z,70.92
2018-11-02T00:34:23.086Z,69.77
2018-11-02T00:34:54.217Z,70.03
2018-11-02T00:35:25.328Z,69.17
2018-11-02T00:35:56.490Z,71.45
2018-11-02T00:36:27.619Z,62.62
2018-11-02T00:36:58.785Z,66.33
2018-11-02T00:37:29.894Z,67.50
2018-11-02T00:38:00.997Z,68.80
2018-11-02T00:38:32.109Z,76.02
2018-11-02T00:39:03.241Z,70.85
2018-11-02T00:39:34.383Z,73.57
2018-11-02T00:40:05.521Z,77.90
2018-11-02T00:40:36.644Z,74.40
2018-11-02T00:41:07.759Z,76.95
2018-11-02T00:41:38.916Z,75.60
2018-11-02T00:42:10.070Z,78.85
2018-11-02T00:42:41.253Z,71.72
2018-11-02T00:43:12.364Z,66.70
2018-11-02T00:43:43.481Z,68.87
2018-11-02T00:44:14.664Z,66.82
2018-11-02T00:44:45.785Z,74.67
2018-11-02T00:45:16.910Z,73.78
2018-11-02T00:45:48.027Z,77.40
2018-11-02T00:46:19.166Z,59.77
2018-11-02T00:46:50.290Z,64.97
2018-11-02T00:47:21.398Z,72.70
2018-11-02T00:47:52.589Z,63.10
2018-11-02T00:48:23.743Z,67.80
2018-11-02T00:48:54.891Z,70.37
2018-11-02T00:49:26.036Z,74.75
2018-11-02T00:49:57.238Z,78.83
2018-11-02T00:50:28.374Z,78.42
2018-11-02T00:50:59.531Z,77.92
2018-11-02T00:51:30.700Z,74.32
2018-11-02T00:52:01.825Z,67.35
2018-11-02T00:52:32.941Z,69.75
2018-11-02T00:53:04.279Z,70.00
2018-11-02T00:53:35.410Z,74.80
2018-11-02T00:54:06.536Z,70.97
2018-11-02T00:54:37.695Z,65.78
2018-11-02T00:55:08.843Z,66.67
2018-11-02T00:55:40.020Z,71.80
2018-11-02T00:56:11.139Z,65.70
2018-11-02T00:56:42.267Z,71.50
2018-11-02T00:57:13.386Z,70.40
2018-11-02T00:57:44.518Z,73.28
2018-11-02T00:58:15.696Z,74.82
2018-11-02T00:58:46.837Z,74.05
2018-11-02T00:59:18.002Z,74.10
2018-11-02T00:59:49.101Z,73.92
2018-11-02T01:00:20.216Z,65.12
2018-11-02T01:00:51.371Z,73.12
2018-11-02T01:01:22.516Z,67.62
2018-11-02T01:01:53.634Z,67.12
2018-11-02T01:02:24.793Z,71.10
2018-11-02T01:02:55.950Z,66.28
2018-11-02T01:03:27.092Z,69.05
2018-11-02T01:03:58.211Z,66.97
2018-11-02T01:04:29.322Z,73.05
2018-11-02T01:05:00.454Z,66.95
2018-11-02T01:05:31.589Z,73.30
2018-11-02T01:06:02.741Z,69.27
2018-11-02T01:06:33.870Z,76.37
2018-11-02T01:07:05.056Z,72.55
2018-11-02T01:07:36.214Z,67.62
2018-11-02T01:08:07.371Z,70.17
2018-11-02T01:08:38.510Z,64.30
2018-11-02T01:09:09.664Z,63.95
2018-11-02T01:09:40.778Z,63.10
2018-11-02T01:10:11.912Z,66.70
2018-11-02T01:10:43.018Z,64.87
2018-11-02T01:11:14.176Z,64.40
2018-11-02T01:11:45.320Z,64.92
2018-11-02T01:12:16.461Z,59.38
2018-11-02T01:12:47.614Z,68.80
2018-11-02T01:13:18.786Z,62.10
2018-11-02T01:13:49.912Z,64.25
2018-11-02T01:14:21.029Z,65.00
2018-11-02T01:14:52.153Z,68.47
2018-11-02T01:15:23.314Z,67.55
2018-11-02T01:15:54.432Z,61.88
2018-11-02T01:16:25.653Z,59.40
2018-11-02T01:16:56.805Z,61.70
2018-11-02T01:17:27.950Z,62.33
2018-11-02T01:17:59.091Z,54.15
2018-11-02T01:18:30.223Z,58.13
2018-11-02T01:19:01.362Z,64.03
2018-11-02T01:19:32.520Z,66.22
2018-11-02T01:20:03.701Z,61.45
2018-11-02T01:20:34.868Z,61.60
2018-11-02T01:21:06.012Z,64.37
2018-11-02T01:21:37.674Z,60.03
2018-11-02T01:22:08.834Z,63.00
2018-11-02T01:22:39.946Z,64.80
2018-11-02T01:23:11.134Z,66.00
2018-11-02T01:23:42.252Z,66.22
2018-11-02T01:24:13.409Z,65.85
2018-11-02T01:24:44.552Z,69.42
2018-11-02T01:25:15.705Z,69.55
2018-11-02T01:25:47.131Z,69.70
2018-11-02T01:26:18.269Z,65.47
2018-11-02T01:26:49.414Z,66.85
2018-11-02T01:27:20.535Z,66.72
2018-11-02T01:27:51.676Z,68.17
2018-11-02T01:28:22.970Z,70.52
2018-11-02T01:28:54.131Z,77.80
2018-11-02T01:29:25.289Z,70.83
2018-11-02T01:29:56.426Z,69.55
2018-11-02T01:30:27.548Z,70.17
2018-11-02T01:30:58.688Z,73.07
2018-11-02T01:31:29.798Z,72.05
2018-11-02T01:32:00.968Z,70.32
2018-11-02T01:32:32.098Z,73.12
2018-11-02T01:33:03.242Z,68.25
2018-11-02T01:33:34.394Z,72.53
2018-11-02T01:34:05.529Z,73.97
2018-11-02T01:34:36.653Z,74.30
2018-11-02T01:35:07.758Z,69.37
2018-11-02T01:35:38.887Z,71.55
2018-11-02T01:36:10.005Z,70.45
2018-11-02T01:36:41.180Z,75.22
2018-11-02T01:37:12.353Z,73.80
2018-11-02T01:37:43.506Z,73.05
2018-11-02T01:38:14.634Z,66.07
2018-11-02T01:38:45.756Z,65.15
2018-11-02T01:39:16.884Z,69.65
2018-11-02T01:39:48.119Z,70.37
2018-11-02T01:40:19.293Z,67.45
2018-11-02T01:40:50.413Z,69.87
2018-11-02T01:41:21.542Z,66.12
2018-11-02T01:41:52.668Z,69.35
2018-11-02T01:42:24.739Z,64.10
2018-11-02T01:42:56.059Z,64.07
2018-11-02T01:43:27.407Z,69.85
2018-11-02T01:43:58.579Z,68.70
2018-11-02T01:44:29.763Z,74.70
2018-11-02T01:45:00.866Z,66.50
2018-11-02T01:45:32.048Z,68.50
2018-11-02T01:46:03.202Z,70.08
2018-11-02T01:46:34.343Z,74.58
2018-11-02T01:47:05.492Z,71.95
2018-11-02T01:47:36.597Z,69.65
2018-11-02T01:48:07.778Z,68.60
2018-11-02T01:48:38.975Z,73.83
2018-11-02T01:49:10.164Z,69.53
2018-11-02T01:49:41.289Z,75.17
2018-11-02T01:50:12.449Z,74.07
2018-11-02T01:50:43.574Z,70.90
2018-11-02T01:51:14.739Z,74.20
2018-11-02T01:51:45.947Z,79.90
2018-11-02T01:52:17.273Z,73.35
2018-11-02T01:52:48.428Z,76.17
2018-11-02T01:53:19.563Z,74.50
2018-11-02T01:53:50.747Z,71.67
2018-11-02T01:54:21.898Z,65.55
2018-11-02T01:54:54.030Z,69.87
2018-11-02T01:55:25.184Z,72.50
2018-11-02T01:55:56.405Z,64.70
2018-11-02T01:56:27.517Z,66.33
2018-11-02T01:56:58.659Z,64.97
2018-11-02T01:57:29.832Z,66.67
2018-11-02T01:58:01.016Z,65.12
2018-11-02T01:58:32.215Z,64.27
2018-11-02T01:59:03.419Z,63.63
2018-11-02T01:59:34.579Z,66.12
2018-11-02T02:00:05.702Z,67.82
2018-11-02T02:00:36.943Z,67.47
2018-11-02T02:01:08.067Z,63.75
2018-11-02T02:01:39.206Z,65.32
2018-11-02T02:02:10.327Z,65.87
2018-11-02T02:02:41.492Z,63.45
2018-11-02T02:03:13.154Z,64.00
2018-11-02T02:03:44.294Z,66.02
2018-11-02T02:04:19.891Z,66.97
2018-11-02T02:04:52.019Z,69.12
2018-11-02T02:05:24.692Z,67.40
2018-11-02T02:05:55.862Z,72.42
2018-11-02T02:06:26.987Z,65.37
2018-11-02T02:06:58.122Z,68.30
2018-11-02T02:07:29.259Z,71.95
2018-11-02T02:08:00.420Z,64.90
2018-11-02T02:08:31.568Z,64.50
2018-11-02T02:09:02.727Z,62.30
2018-11-02T02:09:33.922Z,69.10
2018-11-02T02:10:05.068Z,62.50
2018-11-02T02:10:36.233Z,63.87
2018-11-02T02:11:08.528Z,68.85
2018-11-02T02:11:39.732Z,74.32
2018-11-02T02:12:10.849Z,72.05
2018-11-02T02:12:41.958Z,75.78
2018-11-02T02:13:13.113Z,76.62
2018-11-02T02:13:44.267Z,77.27
2018-11-02T02:14:15.479Z,64.60
2018-11-02T02:14:46.645Z,69.35
2018-11-02T02:15:17.764Z,76.45
2018-11-02T02:15:49.473Z,75.00
2018-11-02T02:16:20.638Z,71.37
2018-11-02T02:16:51.818Z,73.10
2018-11-02T02:17:22.966Z,64.50
2018-11-02T02:17:54.067Z,68.15
2018-11-02T02:18:25.232Z,66.33
2018-11-02T02:18:56.648Z,68.00
2018-11-02T02:19:27.817Z,66.53
2018-11-02T02:19:58.938Z,73.70
2018-11-02T02:20:30.074Z,70.83
2018-11-02T02:21:01.190Z,70.25
2018-11-02T02:21:32.323Z,67.65
2018-11-02T02:22:03.478Z,71.85
2018-11-02T02:22:34.646Z,75.30
2018-11-02T02:23:05.759Z,73.17
2018-11-02T02:23:36.906Z,69.85
2018-11-02T02:24:08.014Z,70.62
2018-11-02T02:24:39.202Z,66.20
2018-11-02T02:25:10.338Z,68.47
2018-11-02T02:25:41.463Z,74.35
2018-11-02T02:26:12.595Z,75.97
2018-11-02T02:26:43.782Z,79.55
2018-11-02T02:27:15.056Z,76.40
2018-11-02T02:27:46.184Z,73.92
2018-11-02T02:28:17.307Z,71.35
2018-11-02T02:28:48.425Z,75.37
2018-11-02T02:29:19.599Z,78.92
2018-11-02T02:29:50.781Z,78.67
2018-11-02T02:30:21.917Z,78.60
2018-11-02T02:30:53.040Z,74.40
2018-11-02T02:31:24.841Z,70.42
2018-11-02T02:31:56.612Z,69.03
2018-11-02T02:32:27.758Z,65.45
2018-11-02T02:32:58.871Z,69.32
2018-11-02T02:33:29.988Z,62.98
2018-11-02T02:34:01.126Z,67.37
2018-11-02T02:34:32.359Z,71.53
2018-11-02T02:35:03.477Z,71.35
2018-11-02T02:35:34.651Z,69.60
2018-11-02T02:36:05.813Z,68.07
2018-11-02T02:36:36.988Z,71.67
2018-11-02T02:37:08.117Z,68.33
2018-11-02T02:37:39.231Z,71.60
2018-11-02T02:38:10.357Z,73.12
2018-11-02T02:38:41.469Z,73.07
2018-11-02T02:39:12.593Z,69.67
2018-11-02T02:39:43.726Z,71.75
2018-11-02T02:40:14.834Z,72.05
2018-11-02T02:40:45.948Z,75.17
2018-11-02T02:41:17.113Z,76.20
2018-11-02T02:41:48.238Z,74.97
2018-11-02T02:42:19.380Z,78.40
2018-11-02T02:42:50.527Z,72.75
2018-11-02T02:43:21.836Z,79.15
2018-11-02T02:43:53.036Z,76.62
2018-11-02T02:44:24.165Z,72.12
2018-11-02T02:44:55.285Z,70.75
2018-11-02T02:45:26.379Z,73.92
2018-11-02T02:45:57.514Z,77.42
2018-11-02T02:46:28.650Z,71.25
2018-11-02T02:46:59.794Z,69.30
2018-11-02T02:47:30.956Z,73.47
2018-11-02T02:48:02.117Z,73.55
2018-11-02T02:48:33.795Z,73.33
2018-11-02T02:49:04.970Z,71.60
2018-11-02T02:49:36.128Z,69.07
2018-11-02T02:50:07.290Z,70.87
2018-11-02T02:50:38.421Z,69.58
2018-11-02T02:51:11.963Z,72.62
2018-11-02T02:51:43.102Z,69.40
2018-11-02T02:52:14.312Z,67.40
2018-11-02T02:52:46.268Z,72.62
2018-11-02T02:53:17.435Z,69.53
2018-11-02T02:53:48.538Z,72.32
2018-11-02T02:54:19.677Z,66.55
2018-11-02T02:54:50.813Z,68.50
2018-11-02T02:55:22.077Z,67.22
2018-11-02T02:55:53.207Z,67.10
2018-11-02T02:56:24.350Z,65.03
2018-11-02T02:56:55.478Z,66.07
2018-11-02T02:57:26.710Z,64.22
2018-11-02T02:57:58.642Z,67.00
2018-11-02T02:58:29.810Z,65.37
2018-11-02T02:59:00.950Z,68.75
2018-11-02T02:59:32.162Z,65.75
2018-11-02T03:00:03.294Z,72.30
2018-11-02T03:00:34.440Z,71.33
2018-11-02T03:01:05.573Z,67.22
2018-11-02T03:01:36.684Z,65.50
2018-11-02T03:02:07.844Z,71.57
2018-11-02T03:02:39.049Z,70.03
2018-11-02T03:03:10.188Z,69.97
2018-11-02T03:03:41.379Z,72.35
2018-11-02T03:04:12.505Z,67.75
2018-11-02T03:04:43.633Z,66.17
2018-11-02T03:05:14.866Z,71.28
2018-11-02T03:05:45.978Z,66.62
2018-11-02T03:06:17.085Z,72.20
2018-11-02T03:06:48.208Z,70.67
2018-11-02T03:07:19.389Z,67.00
2018-11-02T03:07:50.549Z,73.15
2018-11-02T03:08:21.676Z,72.90
2018-11-02T03:08:52.869Z,72.75
2018-11-02T03:09:24.123Z,73.35
2018-11-02T03:09:55.291Z,72.78
2018-11-02T03:10:26.529Z,76.80
2018-11-02T03:10:57.805Z,64.90
2018-11-02T03:11:28.760Z,68.78
2018-11-02T03:11:59.903Z,70.32
2018-11-02T03:12:31.025Z,67.87
2018-11-02T03:13:02.176Z,71.60
2018-11-02T03:13:33.290Z,72.50
2018-11-02T03:14:04.489Z,74.92
2018-11-02T03:14:35.620Z,66.42
2018-11-02T03:15:06.782Z,64.47
2018-11-02T03:15:37.946Z,65.22
2018-11-02T03:16:09.072Z,71.12
2018-11-02T03:16:40.207Z,66.00
2018-11-02T03:17:11.328Z,70.03
2018-11-02T03:17:42.521Z,70.70
2018-11-02T03:18:13.683Z,67.17
2018-11-02T03:18:44.888Z,69.10
2018-11-02T03:19:15.962Z,66.85
2018-11-02T03:19:47.132Z,69.15
2018-11-02T03:20:18.245Z,66.67
2018-11-02T03:20:49.399Z,63.83
2018-11-02T03:21:20.509Z,66.37
2018-11-02T03:21:51.614Z,63.52
2018-11-02T03:22:22.790Z,68.15
2018-11-02T03:22:53.874Z,68.12
2018-11-02T03:23:25.023Z,68.15
2018-11-02T03:23:56.189Z,70.95
2018-11-02T03:24:27.366Z,66.35
2018-11-02T03:24:58.516Z,67.08
2018-11-02T03:25:29.686Z,69.30
2018-11-02T03:26:00.845Z,72.22
2018-11-02T03:26:31.956Z,73.42
2018-11-02T03:27:03.145Z,72.62
2018-11-02T03:27:34.288Z,75.57
2018-11-02T03:28:05.457Z,72.42
2018-11-02T03:28:36.610Z,76.10
2018-11-02T03:29:07.726Z,72.58
2018-11-02T03:29:38.839Z,67.40
2018-11-02T03:30:10.042Z,62.35
2018-11-02T03:30:41.199Z,72.85
2018-11-02T03:31:12.365Z,71.33
2018-11-02T03:31:43.492Z,63.55
2018-11-02T03:32:14.619Z,70.90
2018-11-02T03:32:45.780Z,69.03
2018-11-02T03:33:16.932Z,66.87
2018-11-02T03:33:48.098Z,68.70
2018-11-02T03:34:19.247Z,72.65
2018-11-02T03:34:50.383Z,68.75
2018-11-02T03:35:21.532Z,69.53
2018-11-02T03:35:52.656Z,66.40
2018-11-02T03:36:23.815Z,66.57
2018-11-02T03:36:54.935Z,67.30
2018-11-02T03:37:26.047Z,64.42
2018-11-02T03:37:57.228Z,68.00
2018-11-02T03:38:28.385Z,74.27
2018-11-02T03:38:59.491Z,73.30
2018-11-02T03:39:30.616Z,70.67
2018-11-02T03:40:01.810Z,71.05
2018-11-02T03:40:32.891Z,71.28
2018-11-02T03:41:04.041Z,74.87
2018-11-02T03:41:35.179Z,74.90
2018-11-02T03:42:06.321Z,74.87
2018-11-02T03:42:37.447Z,68.72
2018-11-02T03:43:08.954Z,67.50
2018-11-02T03:43:40.093Z,67.05
2018-11-02T03:44:11.191Z,66.67
2018-11-02T03:44:42.308Z,69.95
2018-11-02T03:45:13.419Z,66.80
2018-11-02T03:45:44.546Z,70.87
2018-11-02T03:46:15.669Z,64.17
2018-11-02T03:46:46.800Z,74.67
2018-11-02T03:47:17.937Z,71.10
2018-11-02T03:47:49.066Z,70.65
2018-11-02T03:48:20.270Z,73.67
2018-11-02T03:48:51.441Z,75.35
2018-11-02T03:49:22.574Z,77.30
2018-11-02T03:49:53.729Z,70.37
2018-11-02T03:50:25.292Z,73.78
2018-11-02T03:50:56.741Z,74.22
2018-11-02T03:51:27.866Z,74.12
2018-11-02T03:51:58.992Z,74.35
2018-11-02T03:52:30.128Z,68.37
2018-11-02T03:53:01.247Z,70.12
2018-11-02T03:53:32.456Z,71.17
2018-11-02T03:54:03.630Z,64.65
2018-11-02T03:54:34.803Z,69.70
2018-11-02T03:55:05.939Z,66.42
2018-11-02T03:55:37.053Z,73.33
2018-11-02T03:56:08.297Z,74.60
2018-11-02T03:56:39.495Z,70.40
2018-11-02T03:57:10.592Z,73.70
2018-11-02T03:57:41.729Z,73.92
2018-11-02T03:58:12.843Z,67.00
2018-11-02T03:58:44.026Z,69.10
2018-11-02T03:59:15.140Z,62.62
2018-11-02T03:59:46.276Z,68.28
2018-11-02T04:00:17.424Z,68.33
2018-11-02T04:00:48.575Z,66.45
2018-11-02T04:01:19.695Z,67.40
2018-11-02T04:01:50.823Z,77.82
2018-11-02T04:02:21.994Z,76.82
2018-11-02T04:02:53.138Z,73.55
2018-11-02T04:03:24.255Z,72.10
2018-11-02T04:03:55.409Z,63.00
2018-11-02T04:04:26.584Z,66.55
2018-11-02T04:04:57.724Z,61.53
2018-11-02T04:05:28.913Z,67.20
2018-11-02T04:06:00.061Z,59.25
2018-11-02T04:06:32.273Z,66.12
2018-11-02T04:07:03.489Z,62.60
2018-11-02T04:07:34.646Z,61.58
2018-11-02T04:08:05.812Z,67.05
2018-11-02T04:08:36.933Z,69.47
2018-11-02T04:09:08.096Z,71.75
2018-11-02T04:09:39.292Z,71.33
2018-11-02T04:10:10.439Z,72.97
2018-11-02T04:10:41.576Z,68.28
2018-11-02T04:11:12.706Z,75.42
2018-11-02T04:11:43.870Z,70.97
2018-11-02T04:12:14.986Z,72.00
2018-11-02T04:12:46.173Z,73.37
2018-11-02T04:13:17.348Z,72.32
2018-11-02T04:13:48.502Z,73.70
2018-11-02T04:14:19.681Z,69.67
2018-11-02T04:14:50.813Z,70.08
2018-11-02T04:15:22.000Z,64.42
2018-11-02T04:15:53.158Z,76.92
2018-11-02T04:16:24.306Z,68.07
2018-11-02T04:16:55.453Z,72.20
2018-11-02T04:17:26.575Z,67.00
2018-11-02T04:17:57.687Z,65.62
2018-11-02T04:18:28.837Z,67.15
2018-11-02T04:18:59.942Z,71.80
2018-11-02T04:19:31.099Z,72.10
2018-11-02T04:20:02.245Z,69.55
2018-11-02T04:20:33.415Z,69.42
2018-11-02T04:21:05.335Z,70.00
2018-11-02T04:21:37.320Z,67.67
2018-11-02T04:22:08.558Z,65.90
2018-11-02T04:22:39.731Z,72.35
2018-11-02T04:23:10.935Z,70.30
2018-11-02T04:23:42.084Z,72.45
2018-11-02T04:24:13.220Z,70.47
2018-11-02T04:24:44.325Z,74.95
2018-11-02T04:25:15.432Z,72.20
2018-11-02T04:25:46.596Z,74.65
2018-11-02T04:26:17.714Z,78.17
2018-11-02T04:26:48.835Z,72.12
2018-11-02T04:27:19.947Z,75.05
2018-11-02T04:27:51.077Z,63.90
2018-11-02T04:28:22.253Z,68.55
2018-11-02T04:28:53.362Z,62.38
2018-11-02T04:29:24.498Z,61.15
2018-11-02T04:29:56.706Z,70.67
2018-11-02T04:30:27.864Z,59.15
2018-11-02T04:30:59.128Z,64.27
2018-11-02T04:31:30.158Z,68.42
2018-11-02T04:32:01.308Z,70.55
2018-11-02T04:32:32.440Z,60.90
2018-11-02T04:33:03.559Z,61.00
2018-11-02T04:33:34.751Z,61.58
2018-11-02T04:34:05.893Z,66.82
2018-11-02T04:34:37.050Z,63.68
2018-11-02T04:35:08.172Z,55.95
2018-11-02T04:35:39.342Z,57.48
2018-11-02T04:36:10.471Z,61.30
2018-11-02T04:36:41.617Z,61.45
2018-11-02T04:37:12.788Z,61.75
2018-11-02T04:37:43.893Z,61.50
2018-11-02T04:38:15.012Z,60.95
2018-11-02T04:38:46.143Z,57.05
2018-11-02T04:39:17.299Z,61.55
2018-11-02T04:39:48.528Z,67.22
2018-11-02T04:40:19.652Z,66.80
2018-11-02T04:40:50.762Z,69.77
2018-11-02T04:41:21.940Z,65.05
2018-11-02T04:41:53.111Z,66.35
2018-11-02T04:42:24.256Z,63.55
2018-11-02T04:42:55.412Z,58.25
2018-11-02T04:43:26.514Z,58.87
2018-11-02T04:43:57.653Z,61.65
2018-11-02T04:44:28.794Z,62.25
2018-11-02T04:44:59.925Z,66.90
2018-11-02T04:45:31.125Z,65.85
2018-11-02T04:46:02.265Z,70.62
2018-11-02T04:46:33.372Z,63.13
2018-11-02T04:47:04.501Z,64.82
2018-11-02T04:47:35.662Z,60.05
2018-11-02T04:48:06.783Z,57.88
2018-11-02T04:48:37.890Z,55.70
2018-11-02T04:49:09.051Z,63.70
2018-11-02T04:49:42.097Z,55.40
2018-11-02T04:50:13.228Z,65.05
2018-11-02T04:50:44.377Z,64.22
2018-11-02T04:51:15.592Z,62.17
2018-11-02T04:51:46.688Z,65.72
2018-11-02T04:52:17.822Z,67.35
2018-11-02T04:52:48.972Z,66.25
2018-11-02T04:53:21.121Z,60.63
2018-11-02T04:53:52.280Z,59.90
2018-11-02T04:54:23.440Z,61.40
2018-11-02T04:54:54.570Z,57.93
2018-11-02T04:55:28.648Z,60.63
2018-11-02T04:55:59.814Z,55.28
2018-11-02T04:56:30.960Z,56.53
2018-11-02T04:57:02.098Z,63.80
2018-11-02T04:57:33.268Z,57.67
2018-11-02T04:58:04.442Z,57.33
2018-11-02T04:58:36.564Z,53.33
2018-11-02T04:59:07.781Z,59.42
2018-11-02T04:59:38.893Z,61.10
2018-11-02T05:00:10.012Z,63.70
2018-11-02T05:00:41.180Z,62.93
2018-11-02T05:01:12.338Z,66.85
2018-11-02T05:01:43.498Z,68.97
2018-11-02T05:02:14.625Z,71.45
2018-11-02T05:02:45.819Z,61.13
2018-11-02T05:03:17.005Z,67.92
2018-11-02T05:03:48.670Z,69.75
2018-11-02T05:04:19.815Z,66.57
2018-11-02T05:04:50.934Z,68.17
2018-11-02T05:05:22.112Z,65.62
2018-11-02T05:05:53.260Z,68.15
2018-11-02T05:06:24.456Z,69.50
2018-11-02T05:06:55.713Z,62.70
2018-11-02T05:07:26.885Z,61.20
2018-11-02T05:07:58.113Z,61.53
2018-11-02T05:08:29.305Z,63.78
2018-11-02T05:09:00.432Z,63.90
2018-11-02T05:09:31.553Z,59.20
2018-11-02T05:10:02.835Z,66.80
2018-11-02T05:10:33.828Z,61.02
2018-11-02T05:11:04.960Z,64.22
2018-11-02T05:11:36.219Z,62.90
2018-11-02T05:12:07.241Z,67.22
2018-11-02T05:12:38.362Z,64.90
2018-11-02T05:13:09.490Z,64.72
2018-11-02T05:13:40.621Z,62.58
2018-11-02T05:14:11.795Z,69.70
2018-11-02T05:14:42.933Z,69.92
2018-11-02T05:15:14.068Z,64.67
2018-11-02T05:15:45.220Z,67.62
2018-11-02T05:16:16.375Z,66.12
2018-11-02T05:16:47.504Z,68.80
2018-11-02T05:17:18.639Z,69.05
2018-11-02T05:17:49.764Z,68.65
2018-11-02T05:18:20.926Z,59.65
2018-11-02T05:18:52.073Z,53.83
2018-11-02T05:19:23.276Z,57.75
2018-11-02T05:19:54.446Z,60.08
2018-11-02T05:20:25.582Z,60.30
2018-11-02T05:20:56.780Z,62.43
2018-11-02T05:21:27.966Z,66.70
2018-11-02T05:21:59.083Z,60.30
2018-11-02T05:22:30.622Z,58.73
2018-11-02T05:23:01.775Z,57.83
2018-11-02T05:23:32.936Z,58.33
2018-11-02T05:24:04.056Z,60.80
2018-11-02T05:24:35.236Z,63.00
2018-11-02T05:25:06.386Z,60.52
2018-11-02T05:25:37.530Z,56.85
2018-11-02T05:26:09.463Z,55.85
2018-11-02T05:26:40.624Z,57.80
2018-11-02T05:27:11.765Z,62.05
2018-11-02T05:27:42.962Z,58.45
2018-11-02T05:28:14.118Z,56.90
2018-11-02T05:28:45.288Z,57.65
2018-11-02T05:29:16.417Z,59.18
2018-11-02T05:29:47.548Z,59.42
2018-11-02T05:30:19.617Z,56.15
2018-11-02T05:30:51.606Z,62.05
2018-11-02T05:31:22.876Z,56.73
2018-11-02T05:31:54.042Z,57.73
2018-11-02T05:32:25.224Z,59.60
2018-11-02T05:32:56.371Z,59.58
2018-11-02T05:33:27.536Z,61.83
2018-11-02T05:33:58.804Z,58.75
2018-11-02T05:34:29.958Z,60.23
2018-11-02T05:35:01.074Z,58.38
2018-11-02T05:35:32.221Z,56.18
2018-11-02T05:36:03.376Z,56.60
2018-11-02T05:36:35.579Z,53.58
2018-11-02T05:37:06.848Z,55.05
2018-11-02T05:37:37.996Z,55.80
2018-11-02T05:38:09.139Z,57.65
2018-11-02T05:38:40.297Z,59.98
2018-11-02T05:39:11.530Z,57.48
2018-11-02T05:39:42.759Z,58.13
2018-11-02T05:40:13.883Z,50.63
2018-11-02T05:40:45.046Z,54.27
2018-11-02T05:41:16.171Z,55.10
2018-11-02T05:41:47.319Z,57.25
2018-11-02T05:42:18.443Z,54.60
2018-11-02T05:42:49.570Z,53.08
2018-11-02T05:43:20.715Z,50.67
2018-11-02T05:43:51.893Z,49.23
2018-11-02T05:44:23.080Z,54.70
2018-11-02T05:44:54.236Z,56.18
2018-11-02T05:45:25.360Z,53.28
2018-11-02T05:45:56.504Z,56.98
2018-11-02T05:46:27.633Z,51.90
2018-11-02T05:46:58.818Z,56.23
2018-11-02T05:47:30.063Z,57.03
2018-11-02T05:48:01.162Z,56.15
2018-11-02T05:48:32.306Z,52.58
2018-11-02T05:49:03.500Z,50.38
2018-11-02T05:49:34.670Z,51.88
2018-11-02T05:50:05.787Z,50.67
2018-11-02T05:50:36.923Z,52.10
2018-11-02T05:51:08.069Z,50.25
2018-11-02T05:51:39.226Z,50.43
2018-11-02T05:52:10.391Z,53.98
2018-11-02T05:52:41.505Z,53.87
2018-11-02T05:53:12.654Z,53.23
2018-11-02T05:53:44.867Z,54.93
2018-11-02T05:54:16.717Z,49.75
2018-11-02T05:54:47.880Z,53.87
2018-11-02T05:55:19.035Z,55.75
2018-11-02T05:55:50.196Z,54.40
2018-11-02T05:56:21.497Z,55.90
2018-11-02T05:56:52.794Z,55.08
2018-11-02T06:00:02.789Z,54.75
2018-11-02T06:00:33.946Z,55.48
2018-11-02T06:01:06.270Z,54.50
2018-11-02T06:01:37.484Z,51.75
2018-11-02T06:02:08.592Z,51.08
2018-11-02T06:02:39.757Z,57.23
2018-11-02T06:03:10.871Z,56.35
2018-11-02T06:03:41.999Z,56.55
2018-11-02T06:04:13.139Z,57.55
2018-11-02T06:04:44.267Z,60.12
2018-11-02T06:05:16.047Z,54.13
2018-11-02T06:05:47.237Z,55.98
2018-11-02T06:06:19.403Z,52.90
2018-11-02T06:06:50.562Z,55.90
2018-11-02T06:07:21.693Z,54.88
2018-11-02T06:07:52.855Z,58.40
2018-11-02T06:08:23.990Z,54.48
2018-11-02T06:08:55.116Z,55.95
2018-11-02T06:09:26.233Z,53.48
2018-11-02T06:09:57.355Z,57.80
2018-11-02T06:10:28.525Z,54.95
2018-11-02T06:10:59.676Z,55.15
2018-11-02T06:11:30.804Z,58.45
2018-11-02T06:12:01.907Z,55.08
2018-11-02T06:12:33.057Z,55.05
2018-11-02T06:13:04.212Z,58.95
2018-11-02T06:13:35.366Z,55.30
2018-11-02T06:14:06.489Z,55.25
2018-11-02T06:14:37.708Z,55.85
2018-11-02T06:15:08.854Z,56.95
2018-11-02T06:15:39.976Z,52.73
2018-11-02T06:16:11.129Z,52.90
2018-11-02T06:16:42.251Z,48.55
2018-11-02T06:17:13.351Z,51.60
2018-11-02T06:17:44.488Z,55.17
2018-11-02T06:18:15.696Z,50.10
2018-11-02T06:18:46.853Z,51.90
2018-11-02T06:19:18.010Z,51.65
2018-11-02T06:19:49.149Z,49.95
2018-11-02T06:20:20.290Z,46.60
2018-11-02T06:20:51.394Z,44.42
2018-11-02T06:21:22.508Z,46.40
2018-11-02T06:21:53.642Z,49.18
2018-11-02T06:22:24.770Z,49.38
2018-11-02T06:22:55.953Z,47.93
2018-11-02T06:23:27.079Z,48.20
2018-11-02T06:23:58.265Z,50.15
2018-11-02T06:24:29.518Z,49.13
2018-11-02T06:25:00.575Z,47.48
2018-11-02T06:25:31.707Z,52.33
2018-11-02T06:26:02.847Z,52.35
2018-11-02T06:26:33.953Z,54.08
2018-11-02T06:27:05.067Z,51.25
2018-11-02T06:27:36.187Z,54.23
2018-11-02T06:28:07.355Z,51.68
2018-11-02T06:28:38.484Z,47.53
2018-11-02T06:29:09.602Z,49.90
2018-11-02T06:29:40.823Z,49.90
2018-11-02T06:30:11.953Z,49.63
2018-11-02T06:30:43.256Z,51.15
2018-11-02T06:31:14.237Z,50.52
2018-11-02T06:31:45.380Z,50.90
2018-11-02T06:32:16.519Z,47.95
2018-11-02T06:32:47.699Z,47.75
2018-11-02T06:33:18.815Z,46.68
2018-11-02T06:33:49.951Z,47.17
2018-11-02T06:34:21.091Z,50.23
2018-11-02T06:34:52.259Z,48.40
2018-11-02T06:35:23.380Z,49.55
2018-11-02T06:35:54.491Z,49.15
2018-11-02T06:36:25.649Z,49.27
2018-11-02T06:36:56.796Z,51.23
2018-11-02T06:37:27.952Z,51.18
2018-11-02T06:37:59.114Z,54.13
2018-11-02T06:38:30.249Z,51.60
2018-11-02T06:39:01.384Z,52.75
2018-11-02T06:39:32.560Z,47.43
2018-11-02T06:40:03.915Z,49.08
2018-11-02T06:40:35.062Z,55.60
2018-11-02T06:41:06.267Z,50.92
2018-11-02T06:41:37.397Z,48.17
2018-11-02T06:42:08.532Z,49.95
2018-11-02T06:42:39.748Z,52.13
2018-11-02T06:43:10.867Z,49.38
2018-11-02T06:43:42.001Z,50.00
2018-11-02T06:44:13.116Z,54.42
2018-11-02T06:44:44.310Z,52.48